sensor_id;sensor_type;location;lat;lon;timestamp;P1;durP1;ratioP1;P2;durP2;ratioP2
50319;SDS011;36226;53.464;9.852;2024-02-23T00:01:24;2.13;;;0.57;;
50319;SDS011;36226;53.464;9.852;2024-02-23T00:03:50;1.20;;;0.40;;
50319;SDS011;36226;53.464;9.852;2024-02-23T00:06:15;1.75;;;0.68;;
50319;SDS011;36226;53.464;9.852;2024-02-23T00:08:41;1.83;;;0.60;;
50319;SDS011;36226;53.464;9.852;2024-02-23T00:11:06;3.95;;;0.75;;
50319;SDS011;36226;53.464;9.852;2024-02-23T00:13:32;4.38;;;0.70;;
50319;SDS011;36226;53.464;9.852;2024-02-23T00:15:57;4.85;;;0.75;;
50319;SDS011;36226;53.464;9.852;2024-02-23T00:18:22;2.53;;;1.23;;
50319;SDS011;36226;53.464;9.852;2024-02-23T00:20:48;1.60;;;0.57;;
50319;SDS011;36226;53.464;9.852;2024-02-23T00:23:13;2.00;;;0.50;;
50319;SDS011;36226;53.464;9.852;2024-02-23T00:25:39;1.48;;;0.40;;
50319;SDS011;36226;53.464;9.852;2024-02-23T00:28:04;0.50;;;0.40;;
50319;SDS011;36226;53.464;9.852;2024-02-23T00:30:30;1.15;;;0.40;;
50319;SDS011;36226;53.464;9.852;2024-02-23T00:32:55;1.00;;;0.40;;
50319;SDS011;36226;53.464;9.852;2024-02-23T00:35:21;0.60;;;0.35;;
50319;SDS011;36226;53.464;9.852;2024-02-23T00:37:46;2.05;;;0.57;;
50319;SDS011;36226;53.464;9.852;2024-02-23T00:40:12;0.55;;;0.30;;
50319;SDS011;36226;53.464;9.852;2024-02-23T00:42:37;0.55;;;0.32;;
50319;SDS011;36226;53.464;9.852;2024-02-23T00:45:03;0.40;;;0.30;;
50319;SDS011;36226;53.464;9.852;2024-02-23T00:47:28;1.88;;;0.38;;
50319;SDS011;36226;53.464;9.852;2024-02-23T00:49:54;4.30;;;0.40;;
50319;SDS011;36226;53.464;9.852;2024-02-23T00:52:19;0.47;;;0.17;;
50319;SDS011;36226;53.464;9.852;2024-02-23T00:54:44;0.22;;;0.10;;
50319;SDS011;36226;53.464;9.852;2024-02-23T00:57:10;0.45;;;0.20;;
50319;SDS011;36226;53.464;9.852;2024-02-23T00:59:36;0.32;;;0.30;;
50319;SDS011;36226;53.464;9.852;2024-02-23T01:02:01;0.10;;;0.10;;
50319;SDS011;36226;53.464;9.852;2024-02-23T01:04:27;0.43;;;0.20;;
50319;SDS011;36226;53.464;9.852;2024-02-23T01:06:52;0.43;;;0.28;;
50319;SDS011;36226;53.464;9.852;2024-02-23T01:09:17;2.03;;;0.30;;
50319;SDS011;36226;53.464;9.852;2024-02-23T01:11:46;0.40;;;0.30;;
50319;SDS011;36226;53.464;9.852;2024-02-23T01:14:11;0.47;;;0.20;;
50319;SDS011;36226;53.464;9.852;2024-02-23T01:16:37;0.88;;;0.40;;
50319;SDS011;36226;53.464;9.852;2024-02-23T01:19:02;1.02;;;0.38;;
50319;SDS011;36226;53.464;9.852;2024-02-23T01:21:28;0.43;;;0.32;;
50319;SDS011;36226;53.464;9.852;2024-02-23T01:23:53;1.25;;;0.50;;
50319;SDS011;36226;53.464;9.852;2024-02-23T01:26:19;0.93;;;0.50;;
50319;SDS011;36226;53.464;9.852;2024-02-23T01:28:44;0.60;;;0.50;;
50319;SDS011;36226;53.464;9.852;2024-02-23T01:31:09;0.50;;;0.50;;
50319;SDS011;36226;53.464;9.852;2024-02-23T01:33:36;1.05;;;0.47;;
50319;SDS011;36226;53.464;9.852;2024-02-23T01:36:03;0.82;;;0.50;;
50319;SDS011;36226;53.464;9.852;2024-02-23T01:38:30;0.63;;;0.55;;
50319;SDS011;36226;53.464;9.852;2024-02-23T01:41:01;0.70;;;0.50;;
50319;SDS011;36226;53.464;9.852;2024-02-23T01:43:26;0.50;;;0.40;;
50319;SDS011;36226;53.464;9.852;2024-02-23T01:45:52;3.13;;;0.70;;
50319;SDS011;36226;53.464;9.852;2024-02-23T01:48:18;0.43;;;0.30;;
50319;SDS011;36226;53.464;9.852;2024-02-23T01:50:43;0.55;;;0.52;;
50319;SDS011;36226;53.464;9.852;2024-02-23T01:53:09;0.50;;;0.40;;
50319;SDS011;36226;53.464;9.852;2024-02-23T01:55:36;0.40;;;0.40;;
50319;SDS011;36226;53.464;9.852;2024-02-23T01:58:02;0.30;;;0.30;;
50319;SDS011;36226;53.464;9.852;2024-02-23T02:00:29;0.40;;;0.40;;
50319;SDS011;36226;53.464;9.852;2024-02-23T02:02:54;0.55;;;0.40;;
50319;SDS011;36226;53.464;9.852;2024-02-23T02:05:20;0.47;;;0.30;;
50319;SDS011;36226;53.464;9.852;2024-02-23T02:07:45;0.43;;;0.10;;
50319;SDS011;36226;53.464;9.852;2024-02-23T02:10:12;1.13;;;0.10;;
50319;SDS011;36226;53.464;9.852;2024-02-23T02:12:38;0.00;;;0.00;;
50319;SDS011;36226;53.464;9.852;2024-02-23T02:15:03;0.43;;;0.08;;
50319;SDS011;36226;53.464;9.852;2024-02-23T02:17:29;0.45;;;0.00;;
50319;SDS011;36226;53.464;9.852;2024-02-23T02:19:55;0.00;;;0.00;;
50319;SDS011;36226;53.464;9.852;2024-02-23T02:22:20;0.10;;;0.10;;
50319;SDS011;36226;53.464;9.852;2024-02-23T02:24:45;0.00;;;0.00;;
50319;SDS011;36226;53.464;9.852;2024-02-23T02:27:13;0.30;;;0.00;;
50319;SDS011;36226;53.464;9.852;2024-02-23T02:29:38;0.00;;;0.00;;
50319;SDS011;36226;53.464;9.852;2024-02-23T02:32:04;0.20;;;0.20;;
50319;SDS011;36226;53.464;9.852;2024-02-23T02:34:29;0.10;;;0.10;;
50319;SDS011;36226;53.464;9.852;2024-02-23T02:36:55;0.10;;;0.03;;
50319;SDS011;36226;53.464;9.852;2024-02-23T02:39:20;0.03;;;0.03;;
50319;SDS011;36226;53.464;9.852;2024-02-23T02:41:47;0.10;;;0.10;;
50319;SDS011;36226;53.464;9.852;2024-02-23T02:44:13;0.10;;;0.00;;
50319;SDS011;36226;53.464;9.852;2024-02-23T02:46:39;0.20;;;0.20;;
50319;SDS011;36226;53.464;9.852;2024-02-23T02:49:04;0.28;;;0.10;;
50319;SDS011;36226;53.464;9.852;2024-02-23T02:51:29;0.40;;;0.10;;
50319;SDS011;36226;53.464;9.852;2024-02-23T02:53:55;0.28;;;0.20;;
50319;SDS011;36226;53.464;9.852;2024-02-23T02:56:20;0.20;;;0.20;;
50319;SDS011;36226;53.464;9.852;2024-02-23T02:58:45;0.43;;;0.10;;
50319;SDS011;36226;53.464;9.852;2024-02-23T03:01:11;1.38;;;0.20;;
50319;SDS011;36226;53.464;9.852;2024-02-23T03:03:37;0.60;;;0.30;;
50319;SDS011;36226;53.464;9.852;2024-02-23T03:06:02;0.30;;;0.20;;
50319;SDS011;36226;53.464;9.852;2024-02-23T03:08:28;4.78;;;0.55;;
50319;SDS011;36226;53.464;9.852;2024-02-23T03:10:54;0.95;;;0.40;;
50319;SDS011;36226;53.464;9.852;2024-02-23T03:13:19;1.08;;;0.60;;
50319;SDS011;36226;53.464;9.852;2024-02-23T03:15:44;0.55;;;0.40;;
50319;SDS011;36226;53.464;9.852;2024-02-23T03:18:10;0.77;;;0.50;;
50319;SDS011;36226;53.464;9.852;2024-02-23T03:20:35;0.75;;;0.50;;
50319;SDS011;36226;53.464;9.852;2024-02-23T03:23:01;1.10;;;0.68;;
50319;SDS011;36226;53.464;9.852;2024-02-23T03:25:28;1.50;;;0.52;;
50319;SDS011;36226;53.464;9.852;2024-02-23T03:27:54;0.80;;;0.38;;
50319;SDS011;36226;53.464;9.852;2024-02-23T03:30:19;1.10;;;0.60;;
50319;SDS011;36226;53.464;9.852;2024-02-23T03:32:45;0.68;;;0.50;;
50319;SDS011;36226;53.464;9.852;2024-02-23T03:35:12;1.90;;;0.40;;
50319;SDS011;36226;53.464;9.852;2024-02-23T03:37:37;0.50;;;0.30;;
50319;SDS011;36226;53.464;9.852;2024-02-23T03:40:03;0.38;;;0.38;;
50319;SDS011;36226;53.464;9.852;2024-02-23T03:42:29;0.35;;;0.30;;
50319;SDS011;36226;53.464;9.852;2024-02-23T03:44:55;0.30;;;0.30;;
50319;SDS011;36226;53.464;9.852;2024-02-23T03:47:20;0.28;;;0.28;;
50319;SDS011;36226;53.464;9.852;2024-02-23T03:49:46;0.20;;;0.15;;
50319;SDS011;36226;53.464;9.852;2024-02-23T03:52:12;1.42;;;0.30;;
50319;SDS011;36226;53.464;9.852;2024-02-23T03:54:37;0.30;;;0.30;;
50319;SDS011;36226;53.464;9.852;2024-02-23T03:57:02;0.20;;;0.20;;
50319;SDS011;36226;53.464;9.852;2024-02-23T03:59:28;0.30;;;0.22;;
50319;SDS011;36226;53.464;9.852;2024-02-23T04:01:54;1.58;;;0.40;;
50319;SDS011;36226;53.464;9.852;2024-02-23T04:04:19;0.77;;;0.30;;
50319;SDS011;36226;53.464;9.852;2024-02-23T04:06:45;0.45;;;0.30;;
50319;SDS011;36226;53.464;9.852;2024-02-23T04:09:10;0.50;;;0.40;;
50319;SDS011;36226;53.464;9.852;2024-02-23T04:11:36;2.08;;;0.30;;
50319;SDS011;36226;53.464;9.852;2024-02-23T04:14:01;0.40;;;0.40;;
50319;SDS011;36226;53.464;9.852;2024-02-23T04:16:26;5.82;;;0.40;;
50319;SDS011;36226;53.464;9.852;2024-02-23T04:18:52;0.45;;;0.32;;
50319;SDS011;36226;53.464;9.852;2024-02-23T04:21:18;0.70;;;0.40;;
50319;SDS011;36226;53.464;9.852;2024-02-23T04:23:43;0.82;;;0.40;;
50319;SDS011;36226;53.464;9.852;2024-02-23T04:26:09;1.65;;;0.45;;
50319;SDS011;36226;53.464;9.852;2024-02-23T04:28:34;1.02;;;0.40;;
50319;SDS011;36226;53.464;9.852;2024-02-23T04:31:02;1.08;;;0.45;;
50319;SDS011;36226;53.464;9.852;2024-02-23T04:33:28;0.65;;;0.60;;
50319;SDS011;36226;53.464;9.852;2024-02-23T04:35:53;2.63;;;0.60;;
50319;SDS011;36226;53.464;9.852;2024-02-23T04:38:18;0.85;;;0.50;;
50319;SDS011;36226;53.464;9.852;2024-02-23T04:40:44;2.83;;;0.60;;
50319;SDS011;36226;53.464;9.852;2024-02-23T04:43:09;1.85;;;0.90;;
50319;SDS011;36226;53.464;9.852;2024-02-23T04:45:34;2.35;;;0.57;;
50319;SDS011;36226;53.464;9.852;2024-02-23T04:47:59;4.72;;;0.70;;
50319;SDS011;36226;53.464;9.852;2024-02-23T04:50:25;2.55;;;0.88;;
50319;SDS011;36226;53.464;9.852;2024-02-23T04:52:50;5.22;;;1.08;;
50319;SDS011;36226;53.464;9.852;2024-02-23T04:55:15;1.60;;;0.85;;
50319;SDS011;36226;53.464;9.852;2024-02-23T04:57:41;3.10;;;0.93;;
50319;SDS011;36226;53.464;9.852;2024-02-23T05:00:07;1.95;;;1.10;;
50319;SDS011;36226;53.464;9.852;2024-02-23T05:02:32;2.55;;;1.23;;
50319;SDS011;36226;53.464;9.852;2024-02-23T05:05:00;1.75;;;0.90;;
50319;SDS011;36226;53.464;9.852;2024-02-23T05:07:29;3.90;;;1.42;;
50319;SDS011;36226;53.464;9.852;2024-02-23T05:09:55;3.90;;;1.20;;
50319;SDS011;36226;53.464;9.852;2024-02-23T05:12:20;6.07;;;1.02;;
50319;SDS011;36226;53.464;9.852;2024-02-23T05:14:46;2.50;;;1.00;;
50319;SDS011;36226;53.464;9.852;2024-02-23T05:17:11;4.93;;;1.00;;
50319;SDS011;36226;53.464;9.852;2024-02-23T05:19:36;4.47;;;1.20;;
50319;SDS011;36226;53.464;9.852;2024-02-23T05:22:02;1.83;;;1.05;;
50319;SDS011;36226;53.464;9.852;2024-02-23T05:24:28;6.22;;;1.40;;
50319;SDS011;36226;53.464;9.852;2024-02-23T05:26:54;3.97;;;1.30;;
50319;SDS011;36226;53.464;9.852;2024-02-23T05:29:19;5.90;;;1.35;;
50319;SDS011;36226;53.464;9.852;2024-02-23T05:31:51;4.57;;;1.25;;
50319;SDS011;36226;53.464;9.852;2024-02-23T05:34:17;5.38;;;1.40;;
50319;SDS011;36226;53.464;9.852;2024-02-23T05:36:43;1.92;;;1.10;;
50319;SDS011;36226;53.464;9.852;2024-02-23T05:39:12;2.10;;;1.20;;
50319;SDS011;36226;53.464;9.852;2024-02-23T05:41:40;5.85;;;1.13;;
50319;SDS011;36226;53.464;9.852;2024-02-23T05:44:05;3.58;;;1.00;;
50319;SDS011;36226;53.464;9.852;2024-02-23T05:46:34;3.38;;;1.05;;
50319;SDS011;36226;53.464;9.852;2024-02-23T05:49:00;1.88;;;0.98;;
50319;SDS011;36226;53.464;9.852;2024-02-23T05:51:27;2.42;;;0.80;;
50319;SDS011;36226;53.464;9.852;2024-02-23T05:53:54;1.60;;;0.70;;
50319;SDS011;36226;53.464;9.852;2024-02-23T05:56:19;4.63;;;0.60;;
50319;SDS011;36226;53.464;9.852;2024-02-23T05:58:45;1.45;;;0.63;;
50319;SDS011;36226;53.464;9.852;2024-02-23T06:01:10;2.42;;;0.90;;
50319;SDS011;36226;53.464;9.852;2024-02-23T06:03:35;1.95;;;0.60;;
50319;SDS011;36226;53.464;9.852;2024-02-23T06:06:01;3.05;;;1.00;;
50319;SDS011;36226;53.464;9.852;2024-02-23T06:08:26;5.85;;;0.88;;
50319;SDS011;36226;53.464;9.852;2024-02-23T06:10:51;1.40;;;0.60;;
50319;SDS011;36226;53.464;9.852;2024-02-23T06:13:17;1.13;;;0.85;;
50319;SDS011;36226;53.464;9.852;2024-02-23T06:15:42;1.55;;;0.60;;
50319;SDS011;36226;53.464;9.852;2024-02-23T06:18:08;1.77;;;0.60;;
50319;SDS011;36226;53.464;9.852;2024-02-23T06:20:33;2.55;;;0.73;;
50319;SDS011;36226;53.464;9.852;2024-02-23T06:22:59;2.03;;;0.90;;
50319;SDS011;36226;53.464;9.852;2024-02-23T06:25:24;1.52;;;0.80;;
50319;SDS011;36226;53.464;9.852;2024-02-23T06:27:49;1.63;;;0.63;;
50319;SDS011;36226;53.464;9.852;2024-02-23T06:30:15;1.88;;;0.90;;
50319;SDS011;36226;53.464;9.852;2024-02-23T06:32:40;1.00;;;0.80;;
50319;SDS011;36226;53.464;9.852;2024-02-23T06:35:06;1.20;;;0.68;;
50319;SDS011;36226;53.464;9.852;2024-02-23T06:37:32;1.85;;;0.90;;
50319;SDS011;36226;53.464;9.852;2024-02-23T06:39:58;1.88;;;0.90;;
50319;SDS011;36226;53.464;9.852;2024-02-23T06:42:23;4.15;;;1.15;;
50319;SDS011;36226;53.464;9.852;2024-02-23T06:44:49;1.77;;;1.02;;
50319;SDS011;36226;53.464;9.852;2024-02-23T06:47:14;1.25;;;1.00;;
50319;SDS011;36226;53.464;9.852;2024-02-23T06:49:43;2.35;;;1.15;;
50319;SDS011;36226;53.464;9.852;2024-02-23T06:52:09;2.88;;;1.25;;
50319;SDS011;36226;53.464;9.852;2024-02-23T06:54:35;3.50;;;1.50;;
50319;SDS011;36226;53.464;9.852;2024-02-23T06:57:00;4.63;;;1.48;;
50319;SDS011;36226;53.464;9.852;2024-02-23T06:59:26;2.75;;;1.25;;
50319;SDS011;36226;53.464;9.852;2024-02-23T07:01:52;3.88;;;1.42;;
50319;SDS011;36226;53.464;9.852;2024-02-23T07:04:26;2.67;;;1.13;;
50319;SDS011;36226;53.464;9.852;2024-02-23T07:06:53;5.13;;;1.60;;
50319;SDS011;36226;53.464;9.852;2024-02-23T07:09:19;3.97;;;1.58;;
50319;SDS011;36226;53.464;9.852;2024-02-23T07:11:44;6.32;;;1.70;;
50319;SDS011;36226;53.464;9.852;2024-02-23T07:14:10;3.97;;;1.40;;
50319;SDS011;36226;53.464;9.852;2024-02-23T07:16:38;4.18;;;1.45;;
50319;SDS011;36226;53.464;9.852;2024-02-23T07:19:06;4.22;;;1.50;;
50319;SDS011;36226;53.464;9.852;2024-02-23T07:21:32;4.18;;;1.38;;
50319;SDS011;36226;53.464;9.852;2024-02-23T07:23:58;3.08;;;1.30;;
50319;SDS011;36226;53.464;9.852;2024-02-23T07:26:24;3.92;;;1.42;;
50319;SDS011;36226;53.464;9.852;2024-02-23T07:28:49;5.35;;;1.50;;
50319;SDS011;36226;53.464;9.852;2024-02-23T07:31:14;3.28;;;1.42;;
50319;SDS011;36226;53.464;9.852;2024-02-23T07:33:40;2.70;;;1.30;;
50319;SDS011;36226;53.464;9.852;2024-02-23T07:36:05;2.80;;;1.20;;
50319;SDS011;36226;53.464;9.852;2024-02-23T07:38:33;7.65;;;2.25;;
50319;SDS011;36226;53.464;9.852;2024-02-23T07:40:59;4.00;;;1.17;;
50319;SDS011;36226;53.464;9.852;2024-02-23T07:43:24;8.13;;;1.50;;
50319;SDS011;36226;53.464;9.852;2024-02-23T07:45:51;5.28;;;1.20;;
50319;SDS011;36226;53.464;9.852;2024-02-23T07:48:16;5.25;;;1.35;;
50319;SDS011;36226;53.464;9.852;2024-02-23T07:50:42;4.78;;;1.40;;
50319;SDS011;36226;53.464;9.852;2024-02-23T07:53:07;8.48;;;1.20;;
50319;SDS011;36226;53.464;9.852;2024-02-23T07:55:32;3.85;;;1.05;;
50319;SDS011;36226;53.464;9.852;2024-02-23T07:57:58;1.80;;;0.93;;
50319;SDS011;36226;53.464;9.852;2024-02-23T08:00:26;4.55;;;1.05;;
50319;SDS011;36226;53.464;9.852;2024-02-23T08:02:52;6.72;;;1.30;;
50319;SDS011;36226;53.464;9.852;2024-02-23T08:05:21;2.10;;;1.08;;
50319;SDS011;36226;53.464;9.852;2024-02-23T08:07:47;5.90;;;1.40;;
50319;SDS011;36226;53.464;9.852;2024-02-23T08:10:12;4.97;;;1.30;;
50319;SDS011;36226;53.464;9.852;2024-02-23T08:12:38;4.30;;;1.13;;
50319;SDS011;36226;53.464;9.852;2024-02-23T08:15:03;6.20;;;1.10;;
50319;SDS011;36226;53.464;9.852;2024-02-23T08:17:29;1.90;;;0.82;;
50319;SDS011;36226;53.464;9.852;2024-02-23T08:19:54;3.85;;;0.70;;
50319;SDS011;36226;53.464;9.852;2024-02-23T08:22:19;3.88;;;0.88;;
50319;SDS011;36226;53.464;9.852;2024-02-23T08:24:45;1.80;;;0.90;;
50319;SDS011;36226;53.464;9.852;2024-02-23T08:27:10;7.03;;;1.20;;
50319;SDS011;36226;53.464;9.852;2024-02-23T08:29:39;4.95;;;1.30;;
50319;SDS011;36226;53.464;9.852;2024-02-23T08:32:04;2.53;;;0.82;;
50319;SDS011;36226;53.464;9.852;2024-02-23T08:34:30;5.22;;;1.20;;
50319;SDS011;36226;53.464;9.852;2024-02-23T08:36:56;5.40;;;1.10;;
50319;SDS011;36226;53.464;9.852;2024-02-23T08:39:21;6.22;;;1.33;;
50319;SDS011;36226;53.464;9.852;2024-02-23T08:41:47;2.45;;;0.95;;
50319;SDS011;36226;53.464;9.852;2024-02-23T08:44:12;8.57;;;1.13;;
50319;SDS011;36226;53.464;9.852;2024-02-23T08:46:38;8.32;;;1.10;;
50319;SDS011;36226;53.464;9.852;2024-02-23T08:49:05;4.50;;;1.30;;
50319;SDS011;36226;53.464;9.852;2024-02-23T08:51:30;4.43;;;0.90;;
50319;SDS011;36226;53.464;9.852;2024-02-23T08:53:55;2.15;;;0.75;;
50319;SDS011;36226;53.464;9.852;2024-02-23T08:56:22;3.67;;;1.00;;
50319;SDS011;36226;53.464;9.852;2024-02-23T08:58:47;3.03;;;0.93;;
50319;SDS011;36226;53.464;9.852;2024-02-23T09:01:13;2.70;;;0.85;;
50319;SDS011;36226;53.464;9.852;2024-02-23T09:03:38;2.75;;;0.80;;
50319;SDS011;36226;53.464;9.852;2024-02-23T09:06:03;21.25;;;1.13;;
50319;SDS011;36226;53.464;9.852;2024-02-23T09:08:29;3.08;;;0.90;;
50319;SDS011;36226;53.464;9.852;2024-02-23T09:10:54;2.55;;;1.25;;
50319;SDS011;36226;53.464;9.852;2024-02-23T09:13:20;7.05;;;1.20;;
50319;SDS011;36226;53.464;9.852;2024-02-23T09:15:45;3.58;;;1.17;;
50319;SDS011;36226;53.464;9.852;2024-02-23T09:18:11;5.63;;;0.85;;
50319;SDS011;36226;53.464;9.852;2024-02-23T09:20:37;2.00;;;0.85;;
50319;SDS011;36226;53.464;9.852;2024-02-23T09:23:02;4.10;;;0.88;;
50319;SDS011;36226;53.464;9.852;2024-02-23T09:25:28;6.03;;;1.30;;
50319;SDS011;36226;53.464;9.852;2024-02-23T09:27:56;4.43;;;1.00;;
50319;SDS011;36226;53.464;9.852;2024-02-23T09:30:22;4.93;;;0.70;;
50319;SDS011;36226;53.464;9.852;2024-02-23T09:32:47;7.22;;;1.50;;
50319;SDS011;36226;53.464;9.852;2024-02-23T09:35:12;5.30;;;1.27;;
50319;SDS011;36226;53.464;9.852;2024-02-23T09:37:38;3.40;;;1.10;;
50319;SDS011;36226;53.464;9.852;2024-02-23T09:40:04;5.10;;;1.02;;
50319;SDS011;36226;53.464;9.852;2024-02-23T09:42:30;2.20;;;0.90;;
50319;SDS011;36226;53.464;9.852;2024-02-23T09:45:00;7.22;;;1.52;;
50319;SDS011;36226;53.464;9.852;2024-02-23T09:47:28;3.85;;;1.00;;
50319;SDS011;36226;53.464;9.852;2024-02-23T09:49:54;4.40;;;1.00;;
50319;SDS011;36226;53.464;9.852;2024-02-23T09:52:21;5.10;;;1.05;;
50319;SDS011;36226;53.464;9.852;2024-02-23T09:54:47;4.90;;;1.25;;
50319;SDS011;36226;53.464;9.852;2024-02-23T09:57:13;4.90;;;1.30;;
50319;SDS011;36226;53.464;9.852;2024-02-23T09:59:39;4.88;;;1.17;;
50319;SDS011;36226;53.464;9.852;2024-02-23T10:02:07;5.22;;;1.10;;
50319;SDS011;36226;53.464;9.852;2024-02-23T10:04:36;6.65;;;1.67;;
50319;SDS011;36226;53.464;9.852;2024-02-23T10:07:04;5.72;;;1.20;;
50319;SDS011;36226;53.464;9.852;2024-02-23T10:09:29;4.35;;;1.30;;
50319;SDS011;36226;53.464;9.852;2024-02-23T10:11:55;3.53;;;0.98;;
50319;SDS011;36226;53.464;9.852;2024-02-23T10:14:20;5.53;;;1.40;;
50319;SDS011;36226;53.464;9.852;2024-02-23T10:16:46;2.47;;;0.80;;
50319;SDS011;36226;53.464;9.852;2024-02-23T10:19:12;4.85;;;1.00;;
50319;SDS011;36226;53.464;9.852;2024-02-23T10:21:37;3.70;;;0.90;;
50319;SDS011;36226;53.464;9.852;2024-02-23T10:24:04;8.25;;;1.17;;
50319;SDS011;36226;53.464;9.852;2024-02-23T10:26:30;4.13;;;1.10;;
50319;SDS011;36226;53.464;9.852;2024-02-23T10:28:55;6.25;;;1.25;;
50319;SDS011;36226;53.464;9.852;2024-02-23T10:31:21;6.60;;;0.90;;
50319;SDS011;36226;53.464;9.852;2024-02-23T10:33:48;6.30;;;0.90;;
50319;SDS011;36226;53.464;9.852;2024-02-23T10:36:15;1.75;;;0.77;;
50319;SDS011;36226;53.464;9.852;2024-02-23T10:38:41;2.03;;;0.80;;
50319;SDS011;36226;53.464;9.852;2024-02-23T10:41:10;5.57;;;1.05;;
50319;SDS011;36226;53.464;9.852;2024-02-23T10:43:48;2.95;;;0.90;;
50319;SDS011;36226;53.464;9.852;2024-02-23T10:48:40;4.43;;;0.75;;
50319;SDS011;36226;53.464;9.852;2024-02-23T10:51:06;1.95;;;0.75;;
50319;SDS011;36226;53.464;9.852;2024-02-23T10:53:33;4.53;;;1.20;;
50319;SDS011;36226;53.464;9.852;2024-02-23T10:56:00;6.05;;;0.73;;
50319;SDS011;36226;53.464;9.852;2024-02-23T10:58:25;4.22;;;0.80;;
50319;SDS011;36226;53.464;9.852;2024-02-23T11:00:51;0.95;;;0.50;;
50319;SDS011;36226;53.464;9.852;2024-02-23T11:03:18;3.60;;;0.77;;
50319;SDS011;36226;53.464;9.852;2024-02-23T11:05:47;5.45;;;0.73;;
50319;SDS011;36226;53.464;9.852;2024-02-23T11:08:13;5.32;;;0.82;;
50319;SDS011;36226;53.464;9.852;2024-02-23T11:10:48;4.05;;;0.60;;
50319;SDS011;36226;53.464;9.852;2024-02-23T11:13:16;5.20;;;0.88;;
50319;SDS011;36226;53.464;9.852;2024-02-23T11:15:41;3.95;;;0.50;;
50319;SDS011;36226;53.464;9.852;2024-02-23T11:18:23;4.45;;;0.93;;
50319;SDS011;36226;53.464;9.852;2024-02-23T11:20:59;3.47;;;0.70;;
50319;SDS011;36226;53.464;9.852;2024-02-23T11:23:25;2.58;;;0.50;;
50319;SDS011;36226;53.464;9.852;2024-02-23T11:28:27;1.80;;;0.73;;
50319;SDS011;36226;53.464;9.852;2024-02-23T11:30:53;1.52;;;0.60;;
50319;SDS011;36226;53.464;9.852;2024-02-23T11:33:28;3.72;;;0.65;;
50319;SDS011;36226;53.464;9.852;2024-02-23T11:36:04;5.47;;;0.60;;
50319;SDS011;36226;53.464;9.852;2024-02-23T11:38:30;1.92;;;0.45;;
50319;SDS011;36226;53.464;9.852;2024-02-23T11:40:57;2.20;;;0.47;;
50319;SDS011;36226;53.464;9.852;2024-02-23T11:43:22;1.58;;;0.47;;
50319;SDS011;36226;53.464;9.852;2024-02-23T11:45:51;3.13;;;0.70;;
50319;SDS011;36226;53.464;9.852;2024-02-23T11:48:17;1.98;;;0.88;;
50319;SDS011;36226;53.464;9.852;2024-02-23T11:50:42;3.03;;;0.85;;
50319;SDS011;36226;53.464;9.852;2024-02-23T11:53:08;1.63;;;0.65;;
50319;SDS011;36226;53.464;9.852;2024-02-23T11:55:33;3.28;;;0.68;;
50319;SDS011;36226;53.464;9.852;2024-02-23T11:57:59;6.05;;;0.93;;
50319;SDS011;36226;53.464;9.852;2024-02-23T12:00:24;1.63;;;0.47;;
50319;SDS011;36226;53.464;9.852;2024-02-23T12:02:49;2.45;;;0.50;;
50319;SDS011;36226;53.464;9.852;2024-02-23T12:05:15;3.85;;;0.60;;
50319;SDS011;36226;53.464;9.852;2024-02-23T12:07:41;4.55;;;0.65;;
50319;SDS011;36226;53.464;9.852;2024-02-23T12:10:07;3.60;;;0.60;;
50319;SDS011;36226;53.464;9.852;2024-02-23T12:12:33;3.85;;;0.60;;
50319;SDS011;36226;53.464;9.852;2024-02-23T12:14:58;2.92;;;0.43;;
50319;SDS011;36226;53.464;9.852;2024-02-23T12:17:24;3.22;;;0.60;;
50319;SDS011;36226;53.464;9.852;2024-02-23T12:19:57;3.53;;;0.70;;
50319;SDS011;36226;53.464;9.852;2024-02-23T12:22:24;1.17;;;0.50;;
50319;SDS011;36226;53.464;9.852;2024-02-23T12:24:50;3.08;;;0.68;;
50319;SDS011;36226;53.464;9.852;2024-02-23T12:27:18;2.97;;;0.73;;
50319;SDS011;36226;53.464;9.852;2024-02-23T12:29:53;2.80;;;0.60;;
50319;SDS011;36226;53.464;9.852;2024-02-23T12:32:22;3.92;;;0.77;;
50319;SDS011;36226;53.464;9.852;2024-02-23T12:34:47;2.30;;;0.80;;
50319;SDS011;36226;53.464;9.852;2024-02-23T12:37:16;1.65;;;0.70;;
50319;SDS011;36226;53.464;9.852;2024-02-23T12:39:42;2.35;;;0.50;;
50319;SDS011;36226;53.464;9.852;2024-02-23T12:42:08;2.35;;;0.60;;
50319;SDS011;36226;53.464;9.852;2024-02-23T12:44:34;1.88;;;0.57;;
50319;SDS011;36226;53.464;9.852;2024-02-23T12:46:59;7.93;;;1.05;;
50319;SDS011;36226;53.464;9.852;2024-02-23T12:49:25;1.95;;;0.60;;
50319;SDS011;36226;53.464;9.852;2024-02-23T12:51:50;1.08;;;0.55;;
50319;SDS011;36226;53.464;9.852;2024-02-23T12:54:16;3.28;;;0.63;;
50319;SDS011;36226;53.464;9.852;2024-02-23T12:56:41;2.58;;;0.50;;
50319;SDS011;36226;53.464;9.852;2024-02-23T12:59:07;2.15;;;0.60;;
50319;SDS011;36226;53.464;9.852;2024-02-23T13:01:34;1.30;;;0.55;;
50319;SDS011;36226;53.464;9.852;2024-02-23T13:04:02;2.95;;;0.50;;
50319;SDS011;36226;53.464;9.852;2024-02-23T13:06:27;2.53;;;0.80;;
50319;SDS011;36226;53.464;9.852;2024-02-23T13:08:53;1.33;;;0.47;;
50319;SDS011;36226;53.464;9.852;2024-02-23T13:11:18;1.48;;;0.60;;
50319;SDS011;36226;53.464;9.852;2024-02-23T13:13:43;2.03;;;0.57;;
50319;SDS011;36226;53.464;9.852;2024-02-23T13:16:09;3.08;;;0.50;;
50319;SDS011;36226;53.464;9.852;2024-02-23T13:18:35;3.45;;;0.50;;
50319;SDS011;36226;53.464;9.852;2024-02-23T13:21:00;1.70;;;0.50;;
50319;SDS011;36226;53.464;9.852;2024-02-23T13:23:26;3.10;;;0.63;;
50319;SDS011;36226;53.464;9.852;2024-02-23T13:25:51;3.25;;;0.60;;
50319;SDS011;36226;53.464;9.852;2024-02-23T13:28:16;2.33;;;0.60;;
50319;SDS011;36226;53.464;9.852;2024-02-23T13:30:42;10.05;;;1.42;;
50319;SDS011;36226;53.464;9.852;2024-02-23T13:33:07;1.80;;;0.47;;
50319;SDS011;36226;53.464;9.852;2024-02-23T13:35:35;4.43;;;0.55;;
50319;SDS011;36226;53.464;9.852;2024-02-23T13:38:00;4.70;;;0.88;;
50319;SDS011;36226;53.464;9.852;2024-02-23T13:40:28;2.97;;;0.60;;
50319;SDS011;36226;53.464;9.852;2024-02-23T13:42:54;1.20;;;0.30;;
50319;SDS011;36226;53.464;9.852;2024-02-23T13:45:19;3.58;;;0.68;;
50319;SDS011;36226;53.464;9.852;2024-02-23T13:47:55;2.90;;;0.60;;
50319;SDS011;36226;53.464;9.852;2024-02-23T13:50:24;1.42;;;0.40;;
50319;SDS011;36226;53.464;9.852;2024-02-23T13:52:49;3.33;;;0.50;;
50319;SDS011;36226;53.464;9.852;2024-02-23T13:55:15;3.42;;;0.40;;
50319;SDS011;36226;53.464;9.852;2024-02-23T13:57:40;3.90;;;0.50;;
50319;SDS011;36226;53.464;9.852;2024-02-23T14:00:05;1.33;;;0.30;;
50319;SDS011;36226;53.464;9.852;2024-02-23T14:02:37;1.27;;;0.60;;
50319;SDS011;36226;53.464;9.852;2024-02-23T14:05:05;9.60;;;1.23;;
50319;SDS011;36226;53.464;9.852;2024-02-23T14:07:31;2.42;;;0.45;;
50319;SDS011;36226;53.464;9.852;2024-02-23T14:09:57;4.90;;;0.60;;
50319;SDS011;36226;53.464;9.852;2024-02-23T14:12:23;8.73;;;0.73;;
50319;SDS011;36226;53.464;9.852;2024-02-23T14:14:49;2.10;;;0.30;;
50319;SDS011;36226;53.464;9.852;2024-02-23T14:17:14;2.05;;;0.80;;
50319;SDS011;36226;53.464;9.852;2024-02-23T14:19:39;2.08;;;0.50;;
50319;SDS011;36226;53.464;9.852;2024-02-23T14:22:05;2.50;;;0.70;;
50319;SDS011;36226;53.464;9.852;2024-02-23T14:24:30;2.03;;;0.50;;
50319;SDS011;36226;53.464;9.852;2024-02-23T14:26:55;1.75;;;0.40;;
50319;SDS011;36226;53.464;9.852;2024-02-23T14:29:21;2.67;;;0.43;;
50319;SDS011;36226;53.464;9.852;2024-02-23T14:31:46;2.95;;;0.30;;
50319;SDS011;36226;53.464;9.852;2024-02-23T14:34:12;2.55;;;0.43;;
50319;SDS011;36226;53.464;9.852;2024-02-23T14:36:37;2.85;;;0.43;;
50319;SDS011;36226;53.464;9.852;2024-02-23T14:39:02;1.60;;;0.65;;
50319;SDS011;36226;53.464;9.852;2024-02-23T14:41:29;1.48;;;0.45;;
50319;SDS011;36226;53.464;9.852;2024-02-23T14:43:55;2.35;;;0.50;;
50319;SDS011;36226;53.464;9.852;2024-02-23T14:46:20;2.72;;;0.45;;